Time;durP1;ratioP1;P1;durP2;ratioP2;P2;SDS_P1;SDS_P2;PMS_P1;PMS_P2;Temp;Humidity;BMP_temperature;BMP_pressure;BME280_temperature;BME280_humidity;BME280_pressure;Samples;Min_cycle;Max_cycle;Signal;HPM_P1;HPM_P2
2022/11/17 00:00:12;;;;;;;3.80;1.10;;;;;;;;;;6200086;23;20013;-84
2022/11/17 00:02:38;;;;;;;8.07;1.80;;;;;;;;;;6202709;23;20410;-84
2022/11/17 00:05:04;;;;;;;6.88;2.08;;;;;;;;;;6203010;23;20000;-84
2022/11/17 00:07:30;;;;;;;8.02;1.48;;;;;;;;;;6205164;23;20008;-85
2022/11/17 00:09:56;;;;;;;5.40;1.30;;;;;;;;;;6207486;23;20449;-84
2022/11/17 00:15:07;;;;;;;6.40;1.80;;;;;;;;;;6205958;23;20382;-84
2022/11/17 00:17:33;;;;;;;6.22;1.23;;;;;;;;;;6205006;23;20011;-84
2022/11/17 00:22:45;;;;;;;5.97;1.50;;;;;;;;;;6206102;23;20016;-84
2022/11/17 00:25:11;;;;;;;4.85;1.08;;;;;;;;;;6207652;23;19996;-84
2022/11/17 00:27:37;;;;;;;5.60;1.38;;;;;;;;;;6207794;23;20430;-83
2022/11/17 00:30:03;;;;;;;5.05;1.25;;;;;;;;;;6207435;23;20000;-84
2022/11/17 00:35:17;;;;;;;2.33;1.00;;;;;;;;;;6207370;23;20067;-84
2022/11/17 00:40:29;;;;;;;5.10;0.95;;;;;;;;;;6206936;23;20028;-84
2022/11/17 00:42:55;;;;;;;2.58;0.70;;;;;;;;;;6207692;23;20000;-83
2022/11/17 00:45:21;;;;;;;9.25;1.48;;;;;;;;;;6181090;23;20013;-83
2022/11/17 00:47:47;;;;;;;3.28;0.93;;;;;;;;;;6205840;23;20001;-83
2022/11/17 00:50:13;;;;;;;2.85;0.80;;;;;;;;;;6205843;23;20011;-82
2022/11/17 00:52:40;;;;;;;4.28;0.73;;;;;;;;;;6207219;23;20747;-84
2022/11/17 00:55:06;;;;;;;4.90;1.20;;;;;;;;;;6204607;23;20008;-81
2022/11/17 00:57:44;;;;;;;2.30;0.70;;;;;;;;;;6207607;23;20613;-83
2022/11/17 01:00:11;;;;;;;2.28;0.70;;;;;;;;;;6205405;23;20008;-82
2022/11/17 01:02:37;;;;;;;5.05;0.98;;;;;;;;;;6180545;23;20007;-83
2022/11/17 01:05:03;;;;;;;4.32;1.02;;;;;;;;;;6207446;23;20005;-84
2022/11/17 01:07:29;;;;;;;2.85;0.90;;;;;;;;;;6207253;23;20067;-84
2022/11/17 01:09:55;;;;;;;4.78;0.90;;;;;;;;;;6205599;23;20009;-82
2022/11/17 01:12:22;;;;;;;2.58;0.88;;;;;;;;;;6205394;23;20023;-84
2022/11/17 01:14:48;;;;;;;2.92;0.63;;;;;;;;;;6207187;23;20478;-84
2022/11/17 01:17:14;;;;;;;3.40;0.80;;;;;;;;;;6207367;23;20015;-84
2022/11/17 01:19:40;;;;;;;2.55;0.80;;;;;;;;;;6206757;23;20329;-84
2022/11/17 01:22:06;;;;;;;4.88;0.88;;;;;;;;;;6206944;23;20016;-84
2022/11/17 01:24:32;;;;;;;1.95;0.77;;;;;;;;;;6206255;23;19993;-84
2022/11/17 01:26:58;;;;;;;3.70;0.88;;;;;;;;;;6205612;23;20425;-84
2022/11/17 01:29:25;;;;;;;3.55;1.00;;;;;;;;;;6180471;23;20483;-84
2022/11/17 01:31:51;;;;;;;4.82;1.10;;;;;;;;;;6207684;23;20005;-85
2022/11/17 01:34:18;;;;;;;2.75;0.70;;;;;;;;;;6204838;23;20337;-84
2022/11/17 01:39:30;;;;;;;2.28;0.60;;;;;;;;;;6206735;23;20027;-84
2022/11/17 01:41:56;;;;;;;4.93;1.02;;;;;;;;;;6207145;23;20035;-85
2022/11/17 01:44:51;;;;;;;1.65;0.60;;;;;;;;;;6206919;23;20040;-83
2022/11/17 01:47:17;;;;;;;2.67;0.55;;;;;;;;;;6204630;23;20008;-81
2022/11/17 01:49:44;;;;;;;4.28;0.60;;;;;;;;;;6207345;23;20087;-82
2022/11/17 01:52:10;;;;;;;3.00;0.55;;;;;;;;;;6207726;23;20001;-82
2022/11/17 01:54:39;;;;;;;1.30;0.52;;;;;;;;;;6207416;23;20449;-86
2022/11/17 01:57:13;;;;;;;1.83;0.30;;;;;;;;;;6208261;23;20383;-83
2022/11/17 01:59:41;;;;;;;1.63;0.30;;;;;;;;;;6204844;23;20016;-83
2022/11/17 02:02:07;;;;;;;1.88;0.50;;;;;;;;;;6201299;23;20009;-82
2022/11/17 02:04:35;;;;;;;0.88;0.20;;;;;;;;;;6201457;23;20007;-83
2022/11/17 02:07:14;;;;;;;0.68;0.17;;;;;;;;;;6204357;23;20011;-83
2022/11/17 02:15:15;;;;;;;0.38;0.20;;;;;;;;;;6202576;23;20051;-92
2022/11/17 02:17:42;;;;;;;0.90;0.20;;;;;;;;;;6187362;23;20008;-95
2022/11/17 02:20:09;;;;;;;1.95;0.45;;;;;;;;;;6187922;23;20008;-96
2022/11/17 02:23:09;;;;;;;1.50;0.70;;;;;;;;;;6211838;23;20067;-95
2022/11/17 02:25:41;;;;;;;1.83;0.22;;;;;;;;;;6188113;23;20000;-95
2022/11/17 02:28:08;;;;;;;4.35;0.50;;;;;;;;;;6185871;23;20213;-94
2022/11/17 02:30:40;;;;;;;2.25;0.45;;;;;;;;;;6184971;23;19988;-94
2022/11/17 02:33:12;;;;;;;3.90;0.70;;;;;;;;;;6185519;23;20011;-95
2022/11/17 02:35:57;;;;;;;1.83;0.50;;;;;;;;;;6187263;23;20008;-94
2022/11/17 02:38:43;;;;;;;2.17;0.60;;;;;;;;;;6184520;23;20330;-96
2022/11/17 02:41:34;;;;;;;6.57;1.35;;;;;;;;;;6161157;23;20020;-95
2022/11/17 02:44:35;;;;;;;3.80;0.60;;;;;;;;;;6131610;23;20036;-96
2022/11/17 02:47:14;;;;;;;2.15;0.70;;;;;;;;;;6123539;23;20071;-95
2022/11/17 02:50:25;;;;;;;2.38;0.70;;;;;;;;;;6184417;23;20075;-95
2022/11/17 02:52:51;;;;;;;1.65;0.50;;;;;;;;;;6061183;23;20082;-94
2022/11/17 02:55:24;;;;;;;3.80;0.50;;;;;;;;;;6092169;23;20032;-96
2022/11/17 02:57:50;;;;;;;2.95;0.77;;;;;;;;;;6185441;23;20001;-96
2022/11/17 03:00:20;;;;;;;6.32;0.82;;;;;;;;;;6197774;23;20017;-96
2022/11/17 03:02:54;;;;;;;4.07;1.05;;;;;;;;;;6191421;23;20059;-96
2022/11/17 03:05:39;;;;;;;3.97;1.23;;;;;;;;;;6188823;23;20008;-96
2022/11/17 03:08:24;;;;;;;1.80;0.57;;;;;;;;;;6191126;23;20134;-96
2022/11/17 03:11:04;;;;;;;4.28;0.93;;;;;;;;;;6190713;23;20090;-96
2022/11/17 03:13:40;;;;;;;4.20;1.00;;;;;;;;;;6187502;23;20016;-96
2022/11/17 03:16:18;;;;;;;5.22;0.90;;;;;;;;;;6187559;23;20083;-95
2022/11/17 03:18:48;;;;;;;4.18;1.25;;;;;;;;;;6183203;23;20005;-95
2022/11/17 03:21:21;;;;;;;2.13;0.93;;;;;;;;;;6185273;23;20502;-94
2022/11/17 03:23:52;;;;;;;6.05;1.27;;;;;;;;;;6184195;23;19997;-89
2022/11/17 03:26:29;;;;;;;2.67;1.33;;;;;;;;;;6181870;23;20005;-89
2022/11/17 03:29:13;;;;;;;2.00;0.70;;;;;;;;;;6179789;23;20012;-89
2022/11/17 03:31:40;;;;;;;4.80;1.30;;;;;;;;;;6182157;23;20087;-89
2022/11/17 03:34:09;;;;;;;4.15;1.05;;;;;;;;;;6178585;23;20092;-88
2022/11/17 03:36:37;;;;;;;2.83;0.77;;;;;;;;;;6179021;23;20020;-87
2022/11/17 03:39:07;;;;;;;5.32;0.95;;;;;;;;;;6178163;23;20009;-87
2022/11/17 03:41:35;;;;;;;4.78;0.93;;;;;;;;;;6204954;23;20063;-87
2022/11/17 03:44:02;;;;;;;3.97;0.82;;;;;;;;;;6176820;23;20447;-87
2022/11/17 03:46:29;;;;;;;4.32;0.93;;;;;;;;;;6178143;23;20351;-88
2022/11/17 03:48:55;;;;;;;2.78;0.70;;;;;;;;;;6178154;23;20008;-87
2022/11/17 03:51:24;;;;;;;2.63;0.75;;;;;;;;;;6176383;23;20016;-88
2022/11/17 03:53:51;;;;;;;6.72;0.82;;;;;;;;;;6178074;23;20035;-87
2022/11/17 03:56:17;;;;;;;4.43;0.98;;;;;;;;;;6178924;23;20567;-88
2022/11/17 03:58:48;;;;;;;3.95;1.25;;;;;;;;;;6179138;23;20447;-88
2022/11/17 04:01:15;;;;;;;4.60;1.00;;;;;;;;;;6180320;23;20020;-87
2022/11/17 04:03:41;;;;;;;4.85;0.88;;;;;;;;;;6180324;23;20031;-88
2022/11/17 04:06:13;;;;;;;3.83;1.38;;;;;;;;;;6178730;23;20005;-88
2022/11/17 04:08:40;;;;;;;8.43;1.70;;;;;;;;;;6180639;23;20071;-87
2022/11/17 04:16:35;;;;;;;6.60;1.38;;;;;;;;;;6206836;23;20016;-88
2022/11/17 04:19:02;;;;;;;5.38;1.60;;;;;;;;;;6177797;23;20234;-88
2022/11/17 04:21:28;;;;;;;8.20;1.00;;;;;;;;;;6179231;23;20118;-89
2022/11/17 04:23:56;;;;;;;3.80;0.82;;;;;;;;;;6178662;23;20012;-88
2022/11/17 04:29:08;;;;;;;7.32;1.45;;;;;;;;;;6204458;23;20088;-88
2022/11/17 04:31:34;;;;;;;7.95;1.63;;;;;;;;;;6179579;23;20019;-88
2022/11/17 04:34:02;;;;;;;7.82;1.13;;;;;;;;;;6179616;23;20371;-88
2022/11/17 04:36:30;;;;;;;6.85;1.25;;;;;;;;;;6178002;23;20014;-89
2022/11/17 04:39:00;;;;;;;9.40;1.30;;;;;;;;;;6179759;23;20009;-88
2022/11/17 04:44:13;;;;;;;4.88;1.67;;;;;;;;;;6206981;23;20015;-88
2022/11/17 04:46:39;;;;;;;7.22;1.25;;;;;;;;;;6177980;23;20087;-87
2022/11/17 04:49:06;;;;;;;8.48;1.75;;;;;;;;;;6178469;23;20087;-88
2022/11/17 04:51:33;;;;;;;10.20;1.27;;;;;;;;;;6179101;23;20084;-89
2022/11/17 04:54:00;;;;;;;11.07;1.55;;;;;;;;;;6177373;23;20428;-87
2022/11/17 04:56:28;;;;;;;10.27;1.50;;;;;;;;;;6179588;23;20034;-88
2022/11/17 04:58:54;;;;;;;10.20;2.17;;;;;;;;;;6178900;23;20005;-87
2022/11/17 05:01:21;;;;;;;11.75;1.67;;;;;;;;;;6179580;23;20469;-88
2022/11/17 05:03:55;;;;;;;10.93;1.83;;;;;;;;;;6180067;23;20010;-89
2022/11/17 05:06:24;;;;;;;12.73;2.10;;;;;;;;;;6178178;23;20008;-88
2022/11/17 05:08:54;;;;;;;12.40;2.05;;;;;;;;;;6179702;23;20012;-88
2022/11/17 05:14:05;;;;;;;14.88;1.73;;;;;;;;;;6206191;23;20028;-88
2022/11/17 05:19:18;;;;;;;13.70;2.83;;;;;;;;;;6205194;23;20066;-88
2022/11/17 05:21:44;;;;;;;9.55;2.53;;;;;;;;;;6176701;23;20008;-87
2022/11/17 05:24:13;;;;;;;8.32;2.25;;;;;;;;;;6176396;23;20005;-87
2022/11/17 05:31:53;;;;;;;16.63;2.33;;;;;;;;;;6100849;22;20078;-75
2022/11/17 05:34:19;;;;;;;10.27;2.28;;;;;;;;;;6203579;23;20012;-74
2022/11/17 05:36:45;;;;;;;7.93;2.08;;;;;;;;;;6203079;23;20764;-74
2022/11/17 05:39:12;;;;;;;9.63;1.70;;;;;;;;;;6203024;23;20000;-75
2022/11/17 05:41:39;;;;;;;9.93;2.35;;;;;;;;;;6202235;23;20004;-76
2022/11/17 05:44:05;;;;;;;5.57;1.80;;;;;;;;;;6203502;23;20001;-76
2022/11/17 05:46:31;;;;;;;10.38;1.60;;;;;;;;;;6201458;23;20004;-73
2022/11/17 05:48:57;;;;;;;8.98;1.52;;;;;;;;;;6203359;23;20004;-74
2022/11/17 05:51:24;;;;;;;10.63;2.55;;;;;;;;;;6203502;23;20008;-82
2022/11/17 05:53:50;;;;;;;7.80;2.03;;;;;;;;;;6201453;23;20031;-73
2022/11/17 05:56:16;;;;;;;8.23;1.60;;;;;;;;;;6203345;23;20004;-73
2022/11/17 05:58:43;;;;;;;5.78;1.90;;;;;;;;;;6202741;23;20001;-77
2022/11/17 06:01:10;;;;;;;6.38;1.77;;;;;;;;;;6203037;23;20016;-74
2022/11/17 06:03:42;;;;;;;9.75;2.15;;;;;;;;;;6201624;23;20032;-73
2022/11/17 06:06:08;;;;;;;6.57;1.98;;;;;;;;;;6203309;23;20075;-73
2022/11/17 06:08:35;;;;;;;8.35;1.95;;;;;;;;;;6203043;23;20008;-73
2022/11/17 06:11:01;;;;;;;11.48;2.10;;;;;;;;;;6203035;23;20097;-73
2022/11/17 06:13:28;;;;;;;8.15;2.40;;;;;;;;;;6206542;23;20454;-79
2022/11/17 06:15:58;;;;;;;7.38;1.67;;;;;;;;;;6206714;23;20001;-77
2022/11/17 06:18:26;;;;;;;7.47;1.73;;;;;;;;;;6205204;23;20220;-73
2022/11/17 06:20:52;;;;;;;20.85;3.55;;;;;;;;;;6206012;23;20476;-80
2022/11/17 06:23:20;;;;;;;14.38;2.30;;;;;;;;;;6206574;23;20067;-84
2022/11/17 06:25:46;;;;;;;17.15;2.83;;;;;;;;;;6206832;23;20008;-81
2022/11/17 06:28:14;;;;;;;12.27;2.28;;;;;;;;;;6205933;23;20005;-84
2022/11/17 06:30:40;;;;;;;10.70;2.28;;;;;;;;;;6204611;23;20004;-75
2022/11/17 06:33:11;;;;;;;13.95;3.42;;;;;;;;;;6200419;23;20055;-76
2022/11/17 06:35:37;;;;;;;13.10;3.03;;;;;;;;;;6202458;23;20012;-76
2022/11/17 06:38:03;;;;;;;11.05;2.75;;;;;;;;;;6202171;23;19992;-78
2022/11/17 06:40:29;;;;;;;9.18;2.75;;;;;;;;;;6201999;23;20244;-80
2022/11/17 06:43:08;;;;;;;12.43;4.43;;;;;;;;;;6200638;23;20441;-79
2022/11/17 06:45:52;;;;;;;10.68;6.25;;;;;;;;;;6201079;23;20019;-81
2022/11/17 06:48:25;;;;;;;13.15;6.85;;;;;;;;;;6202233;23;20000;-85
2022/11/17 06:50:52;;;;;;;13.63;5.30;;;;;;;;;;6204152;23;20000;-89
2022/11/17 06:53:18;;;;;;;11.95;4.07;;;;;;;;;;6201908;23;20087;-85
2022/11/17 06:55:50;;;;;;;13.07;3.65;;;;;;;;;;6204640;23;20431;-85
2022/11/17 06:58:16;;;;;;;15.40;4.13;;;;;;;;;;6200885;23;20092;-86
2022/11/17 07:00:42;;;;;;;11.90;3.83;;;;;;;;;;6202119;23;20012;-84
2022/11/17 07:03:09;;;;;;;6.60;1.88;;;;;;;;;;6202539;23;20074;-85
2022/11/17 07:05:37;;;;;;;5.75;1.48;;;;;;;;;;6200432;23;20015;-84
2022/11/17 07:08:05;;;;;;;6.70;1.60;;;;;;;;;;6202659;23;20084;-80
2022/11/17 07:10:32;;;;;;;5.65;1.50;;;;;;;;;;6201780;23;20067;-84
2022/11/17 07:12:58;;;;;;;3.10;1.20;;;;;;;;;;6202326;23;20484;-84
2022/11/17 07:15:24;;;;;;;4.97;1.42;;;;;;;;;;6202258;23;20008;-81
2022/11/17 07:17:50;;;;;;;4.32;1.48;;;;;;;;;;6201771;23;20051;-81
2022/11/17 07:20:16;;;;;;;8.93;2.15;;;;;;;;;;6199636;23;20009;-81
2022/11/17 07:22:43;;;;;;;9.32;1.70;;;;;;;;;;6202252;23;20000;-77
2022/11/17 07:25:10;;;;;;;7.40;2.03;;;;;;;;;;6201389;23;20055;-81
2022/11/17 07:27:36;;;;;;;7.68;1.98;;;;;;;;;;6202652;23;20000;-77
2022/11/17 07:30:04;;;;;;;8.80;2.53;;;;;;;;;;6201605;23;20005;-78
2022/11/17 07:32:30;;;;;;;8.43;2.00;;;;;;;;;;6201214;23;20321;-78
2022/11/17 07:34:57;;;;;;;7.40;2.13;;;;;;;;;;6201006;23;20260;-78
2022/11/17 07:37:23;;;;;;;3.15;1.38;;;;;;;;;;6203419;22;20063;-79
2022/11/17 07:39:49;;;;;;;5.13;1.50;;;;;;;;;;6203562;23;20079;-79
2022/11/17 07:42:15;;;;;;;4.25;1.52;;;;;;;;;;6202639;23;20008;-79
2022/11/17 07:44:41;;;;;;;4.82;1.38;;;;;;;;;;6201794;23;20031;-79
2022/11/17 07:47:07;;;;;;;9.68;2.03;;;;;;;;;;6203018;23;20000;-79
2022/11/17 07:49:33;;;;;;;8.05;2.38;;;;;;;;;;6203746;23;20012;-78
2022/11/17 07:52:00;;;;;;;8.82;2.28;;;;;;;;;;6203157;23;19996;-79
2022/11/17 07:54:26;;;;;;;7.70;1.85;;;;;;;;;;6201650;23;20020;-78
2022/11/17 07:56:52;;;;;;;9.27;2.13;;;;;;;;;;6203074;23;19993;-79
2022/11/17 07:59:20;;;;;;;3.55;1.50;;;;;;;;;;6202109;23;20377;-78
2022/11/17 08:01:46;;;;;;;2.55;1.00;;;;;;;;;;6202970;23;20016;-79
2022/11/17 08:04:13;;;;;;;3.88;1.20;;;;;;;;;;6201390;23;19993;-79
2022/11/17 08:06:39;;;;;;;3.35;1.33;;;;;;;;;;6202486;22;20024;-79
2022/11/17 08:09:06;;;;;;;4.07;1.50;;;;;;;;;;6203091;23;20036;-79
2022/11/17 08:11:32;;;;;;;3.38;1.60;;;;;;;;;;6203400;23;20005;-78
2022/11/17 08:13:58;;;;;;;7.18;1.85;;;;;;;;;;6201331;23;20008;-78
2022/11/17 08:16:29;;;;;;;5.15;1.60;;;;;;;;;;6202737;23;20425;-79
2022/11/17 08:18:56;;;;;;;3.87;1.50;;;;;;;;;;6203002;23;20451;-78
2022/11/17 08:21:22;;;;;;;4.10;1.77;;;;;;;;;;6203212;22;20008;-79
2022/11/17 08:23:53;;;;;;;5.50;2.00;;;;;;;;;;6203032;23;20071;-79
2022/11/17 08:26:20;;;;;;;5.90;2.30;;;;;;;;;;6203408;22;20004;-80
2022/11/17 08:28:46;;;;;;;8.65;2.05;;;;;;;;;;6201892;23;20009;-80
2022/11/17 08:31:13;;;;;;;8.68;2.20;;;;;;;;;;6202730;23;20004;-79
2022/11/17 08:33:39;;;;;;;7.88;2.90;;;;;;;;;;6203005;23;20012;-79
2022/11/17 08:36:08;;;;;;;9.00;2.40;;;;;;;;;;6202598;23;20070;-79
2022/11/17 08:38:35;;;;;;;10.60;2.00;;;;;;;;;;6200986;23;20004;-79
2022/11/17 08:41:03;;;;;;;9.30;2.88;;;;;;;;;;6202452;23;20028;-80
2022/11/17 08:43:29;;;;;;;9.70;2.20;;;;;;;;;;6202995;23;20001;-81
2022/11/17 08:45:55;;;;;;;9.50;2.40;;;;;;;;;;6202856;23;20299;-79
2022/11/17 08:48:21;;;;;;;9.27;2.70;;;;;;;;;;6201086;23;20001;-81
2022/11/17 08:50:48;;;;;;;10.10;3.15;;;;;;;;;;6200940;23;20010;-81
2022/11/17 08:53:15;;;;;;;10.13;2.88;;;;;;;;;;6203046;23;20629;-80
2022/11/17 08:55:42;;;;;;;6.55;1.95;;;;;;;;;;6202615;23;20005;-82
2022/11/17 08:58:08;;;;;;;10.85;2.63;;;;;;;;;;6201002;23;20079;-82
2022/11/17 09:00:35;;;;;;;6.85;1.73;;;;;;;;;;6201202;23;20391;-81
2022/11/17 09:03:05;;;;;;;10.85;2.15;;;;;;;;;;6200863;23;20008;-81
2022/11/17 09:05:31;;;;;;;7.55;2.00;;;;;;;;;;6199271;23;19996;-81
2022/11/17 09:07:58;;;;;;;7.90;2.05;;;;;;;;;;6201014;23;20001;-82
2022/11/17 09:10:25;;;;;;;6.65;2.10;;;;;;;;;;6199345;23;20610;-80
2022/11/17 09:12:54;;;;;;;8.77;2.10;;;;;;;;;;6199698;23;20001;-82
2022/11/17 09:15:21;;;;;;;18.23;6.95;;;;;;;;;;6202535;23;20054;-80
2022/11/17 09:17:47;;;;;;;9.85;5.65;;;;;;;;;;6202402;23;20094;-80
2022/11/17 09:20:14;;;;;;;9.82;3.90;;;;;;;;;;6202500;23;20100;-80
2022/11/17 09:22:40;;;;;;;9.82;3.80;;;;;;;;;;6202469;23;20001;-79
2022/11/17 09:25:06;;;;;;;14.88;3.83;;;;;;;;;;6202527;23;19997;-80
2022/11/17 09:27:32;;;;;;;10.25;3.08;;;;;;;;;;6200258;23;20008;-80
2022/11/17 09:29:58;;;;;;;12.93;2.70;;;;;;;;;;6202430;23;20011;-80
2022/11/17 09:32:25;;;;;;;10.50;2.88;;;;;;;;;;6203106;23;20001;-80
2022/11/17 09:34:51;;;;;;;8.10;2.20;;;;;;;;;;6202620;23;20020;-79
2022/11/17 09:37:17;;;;;;;6.43;2.65;;;;;;;;;;6202299;23;20011;-80
2022/11/17 09:39:43;;;;;;;9.98;2.60;;;;;;;;;;6199962;23;20013;-79
2022/11/17 09:42:13;;;;;;;6.35;2.40;;;;;;;;;;6205850;23;20080;-80
2022/11/17 09:44:47;;;;;;;9.40;2.28;;;;;;;;;;6206208;23;20008;-80
2022/11/17 09:47:21;;;;;;;7.05;2.25;;;;;;;;;;6206034;23;20551;-82
2022/11/17 09:49:56;;;;;;;8.52;2.47;;;;;;;;;;6204080;23;20421;-80
2022/11/17 09:52:33;;;;;;;7.25;2.33;;;;;;;;;;6206455;23;20043;-80
2022/11/17 09:55:03;;;;;;;7.55;2.20;;;;;;;;;;6206420;22;20501;-78
2022/11/17 09:57:39;;;;;;;11.18;2.20;;;;;;;;;;6205816;23;20564;-79
2022/11/17 10:00:05;;;;;;;8.40;2.25;;;;;;;;;;6205264;23;20015;-79
2022/11/17 10:02:31;;;;;;;7.15;1.83;;;;;;;;;;6206025;23;20012;-81
2022/11/17 10:04:58;;;;;;;10.38;2.20;;;;;;;;;;6206481;23;20000;-80
2022/11/17 10:07:25;;;;;;;8.75;2.05;;;;;;;;;;6205704;23;20076;-77
2022/11/17 10:09:52;;;;;;;11.05;2.30;;;;;;;;;;6199306;23;20011;-74
2022/11/17 10:12:20;;;;;;;7.03;2.47;;;;;;;;;;6204062;23;20008;-73
2022/11/17 10:14:49;;;;;;;6.53;2.45;;;;;;;;;;6205734;23;20464;-73
2022/11/17 10:17:17;;;;;;;5.88;1.88;;;;;;;;;;6205196;23;20004;-73
2022/11/17 10:19:46;;;;;;;9.68;2.38;;;;;;;;;;6203560;23;20005;-73
2022/11/17 10:22:33;;;;;;;8.45;2.47;;;;;;;;;;6204562;23;20001;-73
2022/11/17 10:24:59;;;;;;;10.13;2.22;;;;;;;;;;6204645;23;20009;-73
2022/11/17 10:27:27;;;;;;;7.75;2.03;;;;;;;;;;6205347;23;20012;-73
2022/11/17 10:29:59;;;;;;;9.65;2.70;;;;;;;;;;6205078;23;20012;-73
2022/11/17 10:32:26;;;;;;;9.93;2.72;;;;;;;;;;6203384;23;20000;-74
2022/11/17 10:34:53;;;;;;;13.18;2.60;;;;;;;;;;6205386;23;20026;-74
2022/11/17 10:37:24;;;;;;;9.70;2.15;;;;;;;;;;6205537;23;20012;-73
2022/11/17 10:39:50;;;;;;;5.63;1.90;;;;;;;;;;6205554;23;20005;-73
2022/11/17 10:42:22;;;;;;;8.23;2.72;;;;;;;;;;6205125;23;20063;-74
2022/11/17 10:44:51;;;;;;;8.93;2.15;;;;;;;;;;6205242;23;20059;-73
2022/11/17 10:47:29;;;;;;;6.97;1.83;;;;;;;;;;6203526;23;20001;-73
2022/11/17 10:50:14;;;;;;;8.45;1.90;;;;;;;;;;6204967;23;20361;-75
2022/11/17 10:52:40;;;;;;;7.72;1.90;;;;;;;;;;6205668;22;20005;-73
2022/11/17 10:55:25;;;;;;;8.75;2.13;;;;;;;;;;6203146;23;20059;-75
2022/11/17 10:57:59;;;;;;;10.48;2.13;;;;;;;;;;6204958;23;20028;-73
2022/11/17 11:00:27;;;;;;;3.63;1.55;;;;;;;;;;6205003;23;20103;-75
2022/11/17 11:03:04;;;;;;;7.47;1.65;;;;;;;;;;6205305;23;20011;-73
2022/11/17 11:05:30;;;;;;;5.70;1.60;;;;;;;;;;6203250;23;20541;-73
2022/11/17 11:08:29;;;;;;;7.82;1.70;;;;;;;;;;6206394;23;20003;-73
2022/11/17 11:10:58;;;;;;;5.45;1.85;;;;;;;;;;6156713;23;20581;-74
2022/11/17 11:13:32;;;;;;;6.53;1.77;;;;;;;;;;6207005;23;20012;-73
2022/11/17 11:15:58;;;;;;;6.43;1.92;;;;;;;;;;6207758;23;20146;-74
2022/11/17 11:18:27;;;;;;;4.88;1.25;;;;;;;;;;6212179;23;20080;-74
2022/11/17 11:21:03;;;;;;;3.83;1.52;;;;;;;;;;6206831;23;20777;-73
2022/11/17 11:23:35;;;;;;;9.25;2.03;;;;;;;;;;6207248;23;20024;-73
2022/11/17 11:26:04;;;;;;;5.78;1.55;;;;;;;;;;6205266;23;20016;-74
2022/11/17 11:28:43;;;;;;;6.82;1.95;;;;;;;;;;6207196;23;20007;-73
2022/11/17 11:31:20;;;;;;;4.63;1.73;;;;;;;;;;6206791;23;20008;-72
2022/11/17 11:33:49;;;;;;;4.40;1.48;;;;;;;;;;6204086;23;20035;-74
2022/11/17 11:36:15;;;;;;;9.18;2.22;;;;;;;;;;6202848;23;20523;-73
2022/11/17 11:38:51;;;;;;;7.65;2.25;;;;;;;;;;6204439;23;20012;-74
2022/11/17 11:41:26;;;;;;;7.45;2.00;;;;;;;;;;6205138;23;20013;-74
2022/11/17 11:44:02;;;;;;;10.95;2.05;;;;;;;;;;6206719;23;20001;-72
2022/11/17 11:46:37;;;;;;;8.15;1.48;;;;;;;;;;6205174;23;20000;-73
2022/11/17 11:49:23;;;;;;;6.70;1.73;;;;;;;;;;6206720;23;20380;-73
2022/11/17 11:51:50;;;;;;;7.07;1.63;;;;;;;;;;6205651;23;20000;-73
2022/11/17 11:54:19;;;;;;;6.65;2.05;;;;;;;;;;6207233;23;20012;-73
2022/11/17 11:56:47;;;;;;;4.85;1.75;;;;;;;;;;6206504;23;20008;-73
2022/11/17 11:59:20;;;;;;;6.70;1.58;;;;;;;;;;6204817;23;20024;-73
2022/11/17 12:01:46;;;;;;;3.78;1.27;;;;;;;;;;6206750;23;20017;-74
2022/11/17 12:04:24;;;;;;;10.18;2.05;;;;;;;;;;6206948;23;20004;-73
2022/11/17 12:07:15;;;;;;;11.60;1.90;;;;;;;;;;6206507;23;20425;-77
2022/11/17 12:09:44;;;;;;;7.40;1.40;;;;;;;;;;6204474;23;20004;-73
2022/11/17 12:12:22;;;;;;;8.35;1.95;;;;;;;;;;6206035;23;20008;-73
2022/11/17 12:15:21;;;;;;;5.80;1.70;;;;;;;;;;6206647;23;20001;-73
2022/11/17 12:18:01;;;;;;;6.05;1.30;;;;;;;;;;6154876;23;20425;-73
2022/11/17 12:20:34;;;;;;;3.03;1.20;;;;;;;;;;6203221;23;20013;-73
2022/11/17 12:23:19;;;;;;;5.28;1.20;;;;;;;;;;6202108;23;20054;-74
2022/11/17 12:25:46;;;;;;;4.10;1.00;;;;;;;;;;6205533;23;20512;-73
2022/11/17 12:28:31;;;;;;;5.18;1.80;;;;;;;;;;6206284;22;20005;-73
2022/11/17 12:31:07;;;;;;;5.60;1.50;;;;;;;;;;6205513;23;20467;-73
2022/11/17 12:33:53;;;;;;;7.63;1.60;;;;;;;;;;6206115;23;20017;-73
2022/11/17 12:36:30;;;;;;;2.92;1.30;;;;;;;;;;6159438;23;20001;-75
2022/11/17 12:38:56;;;;;;;6.20;1.63;;;;;;;;;;6203320;23;20008;-73
2022/11/17 12:41:41;;;;;;;8.02;1.42;;;;;;;;;;6206162;23;20073;-74
2022/11/17 12:44:27;;;;;;;11.10;2.78;;;;;;;;;;6206041;23;20024;-73
2022/11/17 12:46:55;;;;;;;6.90;1.77;;;;;;;;;;6206029;23;20008;-76
2022/11/17 12:49:31;;;;;;;10.00;1.98;;;;;;;;;;6204855;23;20000;-73
2022/11/17 12:51:59;;;;;;;5.20;1.50;;;;;;;;;;6205923;23;20487;-74
2022/11/17 12:54:37;;;;;;;3.95;1.42;;;;;;;;;;6206011;23;20143;-74
2022/11/17 12:57:03;;;;;;;5.07;2.05;;;;;;;;;;6206174;23;20009;-74
2022/11/17 12:59:33;;;;;;;4.78;1.00;;;;;;;;;;6206414;23;20020;-75
2022/11/17 13:02:08;;;;;;;5.55;1.55;;;;;;;;;;6206315;23;20054;-74
2022/11/17 13:04:34;;;;;;;7.53;2.28;;;;;;;;;;6204705;23;20005;-74
2022/11/17 13:07:06;;;;;;;7.97;2.15;;;;;;;;;;6206122;23;20015;-74
2022/11/17 13:09:34;;;;;;;6.95;2.20;;;;;;;;;;6206163;23;20000;-74
2022/11/17 13:12:03;;;;;;;6.03;1.38;;;;;;;;;;6203708;23;20015;-74
2022/11/17 13:14:29;;;;;;;5.13;1.40;;;;;;;;;;6205572;23;20426;-74
2022/11/17 13:16:56;;;;;;;6.15;1.70;;;;;;;;;;6204177;23;20016;-74
2022/11/17 13:19:41;;;;;;;4.97;1.95;;;;;;;;;;6201658;23;20043;-75
2022/11/17 13:22:10;;;;;;;8.52;1.75;;;;;;;;;;6203744;23;20074;-74
2022/11/17 13:24:37;;;;;;;9.18;1.73;;;;;;;;;;6205731;23;20428;-75
2022/11/17 13:27:06;;;;;;;6.80;1.38;;;;;;;;;;6203614;23;20801;-74
2022/11/17 13:29:32;;;;;;;9.05;1.85;;;;;;;;;;6205332;22;20004;-74
2022/11/17 13:32:25;;;;;;;5.72;1.70;;;;;;;;;;6204949;23;20429;-74
2022/11/17 13:34:55;;;;;;;5.97;2.08;;;;;;;;;;6201927;22;20346;-74
2022/11/17 13:37:23;;;;;;;8.73;2.03;;;;;;;;;;6203696;23;20001;-74
2022/11/17 13:40:02;;;;;;;6.18;1.95;;;;;;;;;;6205484;23;20008;-74
2022/11/17 13:42:32;;;;;;;6.38;1.70;;;;;;;;;;6205348;23;20072;-75
2022/11/17 13:45:01;;;;;;;7.78;2.95;;;;;;;;;;6206082;23;20429;-74
2022/11/17 13:47:36;;;;;;;9.50;2.53;;;;;;;;;;6204263;23;20005;-74
2022/11/17 13:50:21;;;;;;;4.88;1.85;;;;;;;;;;6205790;23;20054;-74
2022/11/17 13:52:51;;;;;;;8.93;2.00;;;;;;;;;;6205579;23;20039;-74
2022/11/17 13:55:18;;;;;;;11.52;2.13;;;;;;;;;;6203522;23;20585;-75
2022/11/17 13:57:54;;;;;;;13.82;2.28;;;;;;;;;;6205465;23;20001;-75
2022/11/17 14:00:20;;;;;;;8.35;1.80;;;;;;;;;;6205385;23;20008;-75
2022/11/17 14:02:53;;;;;;;17.10;2.60;;;;;;;;;;6205691;23;19996;-74
2022/11/17 14:05:21;;;;;;;7.75;2.25;;;;;;;;;;6202031;23;20015;-74
2022/11/17 14:07:48;;;;;;;5.60;1.75;;;;;;;;;;6206022;23;20012;-75
2022/11/17 14:10:20;;;;;;;6.80;1.88;;;;;;;;;;6205679;23;20008;-74
2022/11/17 14:12:50;;;;;;;8.57;1.65;;;;;;;;;;6205557;23;20009;-74
2022/11/17 14:15:22;;;;;;;10.70;2.17;;;;;;;;;;6205241;23;20095;-74
2022/11/17 14:17:52;;;;;;;7.65;1.80;;;;;;;;;;6203385;23;19999;-74
2022/11/17 14:20:19;;;;;;;9.10;2.20;;;;;;;;;;6204610;23;20000;-74
2022/11/17 14:23:00;;;;;;;7.97;2.20;;;;;;;;;;6205403;23;20005;-74
2022/11/17 14:25:27;;;;;;;9.93;2.45;;;;;;;;;;6205376;23;20072;-74
2022/11/17 14:27:53;;;;;;;7.90;2.05;;;;;;;;;;6203333;23;20445;-74
2022/11/17 14:30:20;;;;;;;11.30;1.88;;;;;;;;;;6204920;23;19997;-74
2022/11/17 14:32:46;;;;;;;9.65;1.65;;;;;;;;;;6204876;23;20008;-74
2022/11/17 14:35:13;;;;;;;8.88;1.45;;;;;;;;;;6204851;23;20012;-74
2022/11/17 14:37:39;;;;;;;6.15;1.42;;;;;;;;;;6201191;23;20009;-74
2022/11/17 14:40:06;;;;;;;11.00;2.30;;;;;;;;;;6199597;23;20077;-74
2022/11/17 14:42:33;;;;;;;9.43;1.95;;;;;;;;;;6200570;23;20040;-75
2022/11/17 14:44:59;;;;;;;5.40;1.60;;;;;;;;;;6200874;23;20326;-74
2022/11/17 14:47:25;;;;;;;7.50;1.73;;;;;;;;;;6201082;23;20493;-74
2022/11/17 14:49:51;;;;;;;6.93;1.60;;;;;;;;;;6200946;23;20559;-74
2022/11/17 14:52:18;;;;;;;8.82;2.15;;;;;;;;;;6199278;23;20437;-74
2022/11/17 14:54:44;;;;;;;4.75;1.38;;;;;;;;;;6201253;23;20612;-74
2022/11/17 14:57:10;;;;;;;10.07;1.92;;;;;;;;;;6199862;23;20005;-74
2022/11/17 14:59:36;;;;;;;7.10;1.45;;;;;;;;;;6200444;23;20343;-74
2022/11/17 15:02:03;;;;;;;9.82;2.38;;;;;;;;;;6199498;23;20008;-73
2022/11/17 15:04:29;;;;;;;6.45;1.38;;;;;;;;;;6201219;22;20005;-73
2022/11/17 15:06:55;;;;;;;6.88;2.17;;;;;;;;;;6200805;23;20004;-73
2022/11/17 15:09:22;;;;;;;6.57;1.85;;;;;;;;;;6200914;23;19997;-74
2022/11/17 15:11:48;;;;;;;9.18;1.48;;;;;;;;;;6201866;23;20004;-74
2022/11/17 15:14:14;;;;;;;4.78;1.30;;;;;;;;;;6201296;23;20077;-74
2022/11/17 15:16:40;;;;;;;7.95;1.75;;;;;;;;;;6199571;23;20071;-76
2022/11/17 15:19:06;;;;;;;7.80;1.92;;;;;;;;;;6200610;23;20083;-75
2022/11/17 15:21:32;;;;;;;13.30;2.53;;;;;;;;;;6200634;23;20034;-74
2022/11/17 15:24:01;;;;;;;11.20;2.28;;;;;;;;;;6200917;23;20008;-76
2022/11/17 15:26:27;;;;;;;6.75;1.75;;;;;;;;;;6198455;23;20717;-75
2022/11/17 15:28:56;;;;;;;9.23;1.98;;;;;;;;;;6197527;23;20004;-77
2022/11/17 15:31:22;;;;;;;5.45;2.05;;;;;;;;;;6199169;23;20008;-75
2022/11/17 15:33:49;;;;;;;11.48;2.35;;;;;;;;;;6199595;23;20722;-76
2022/11/17 15:36:16;;;;;;;6.85;2.00;;;;;;;;;;6198770;23;20008;-76